sensor_id;sensor_type;location;lat;lon;timestamp;temperature;humidity
15450;DHT22;7826;49.784;9.934;2023-07-09T00:01:15;20.60;1.00
15450;DHT22;7826;49.784;9.934;2023-07-09T00:03:47;20.60;1.00
15450;DHT22;7826;49.784;9.934;2023-07-09T00:06:18;20.60;1.00
15450;DHT22;7826;49.784;9.934;2023-07-09T00:08:46;20.50;1.00
15450;DHT22;7826;49.784;9.934;2023-07-09T00:11:15;20.50;1.00
15450;DHT22;7826;49.784;9.934;2023-07-09T00:13:42;20.50;1.00
15450;DHT22;7826;49.784;9.934;2023-07-09T00:16:19;20.50;1.00
15450;DHT22;7826;49.784;9.934;2023-07-09T00:18:46;20.50;1.00
15450;DHT22;7826;49.784;9.934;2023-07-09T00:21:16;20.40;1.00
15450;DHT22;7826;49.784;9.934;2023-07-09T00:23:43;20.30;1.00
15450;DHT22;7826;49.784;9.934;2023-07-09T00:26:12;20.30;1.00
15450;DHT22;7826;49.784;9.934;2023-07-09T00:28:40;20.30;1.00
15450;DHT22;7826;49.784;9.934;2023-07-09T00:31:12;20.20;1.00
15450;DHT22;7826;49.784;9.934;2023-07-09T00:33:40;20.20;1.00
15450;DHT22;7826;49.784;9.934;2023-07-09T00:36:28;20.20;1.00
15450;DHT22;7826;49.784;9.934;2023-07-09T00:38:55;20.20;4.10
15450;DHT22;7826;49.784;9.934;2023-07-09T00:41:25;20.10;23.80
15450;DHT22;7826;49.784;9.934;2023-07-09T00:43:54;20.00;34.20
15450;DHT22;7826;49.784;9.934;2023-07-09T00:48:56;20.00;37.70
15450;DHT22;7826;49.784;9.934;2023-07-09T00:51:26;20.00;35.30
15450;DHT22;7826;49.784;9.934;2023-07-09T00:53:57;20.00;54.00
15450;DHT22;7826;49.784;9.934;2023-07-09T00:56:37;19.90;93.60
15450;DHT22;7826;49.784;9.934;2023-07-09T00:59:07;19.80;99.90
15450;DHT22;7826;49.784;9.934;2023-07-09T01:01:35;19.80;99.90
15450;DHT22;7826;49.784;9.934;2023-07-09T01:04:03;19.80;99.90
15450;DHT22;7826;49.784;9.934;2023-07-09T01:06:51;19.80;99.90
15450;DHT22;7826;49.784;9.934;2023-07-09T01:09:18;19.80;99.90
15450;DHT22;7826;49.784;9.934;2023-07-09T01:11:44;19.80;99.90
15450;DHT22;7826;49.784;9.934;2023-07-09T01:14:13;19.60;99.90
15450;DHT22;7826;49.784;9.934;2023-07-09T01:16:46;19.60;99.90
15450;DHT22;7826;49.784;9.934;2023-07-09T01:19:14;19.60;99.90
15450;DHT22;7826;49.784;9.934;2023-07-09T01:21:42;19.60;99.90
15450;DHT22;7826;49.784;9.934;2023-07-09T01:24:14;19.60;99.90
15450;DHT22;7826;49.784;9.934;2023-07-09T01:26:41;19.50;99.90
15450;DHT22;7826;49.784;9.934;2023-07-09T01:29:09;19.50;99.90
15450;DHT22;7826;49.784;9.934;2023-07-09T01:31:36;19.50;99.90
15450;DHT22;7826;49.784;9.934;2023-07-09T01:34:03;19.40;99.90
15450;DHT22;7826;49.784;9.934;2023-07-09T01:36:29;19.40;99.90
15450;DHT22;7826;49.784;9.934;2023-07-09T01:38:57;19.40;99.90
15450;DHT22;7826;49.784;9.934;2023-07-09T01:41:24;19.40;99.90
15450;DHT22;7826;49.784;9.934;2023-07-09T01:43:50;19.40;99.90
15450;DHT22;7826;49.784;9.934;2023-07-09T01:46:17;19.40;99.90
15450;DHT22;7826;49.784;9.934;2023-07-09T01:48:43;19.40;99.90
15450;DHT22;7826;49.784;9.934;2023-07-09T01:51:14;19.30;99.90
15450;DHT22;7826;49.784;9.934;2023-07-09T01:53:43;19.30;99.90
15450;DHT22;7826;49.784;9.934;2023-07-09T01:56:10;19.30;99.90
15450;DHT22;7826;49.784;9.934;2023-07-09T01:58:37;19.30;1.00
15450;DHT22;7826;49.784;9.934;2023-07-09T02:01:16;19.20;1.00
15450;DHT22;7826;49.784;9.934;2023-07-09T02:03:45;19.30;1.00
15450;DHT22;7826;49.784;9.934;2023-07-09T02:06:12;19.10;1.00
15450;DHT22;7826;49.784;9.934;2023-07-09T02:08:38;19.10;1.00
15450;DHT22;7826;49.784;9.934;2023-07-09T02:11:05;19.00;1.00
15450;DHT22;7826;49.784;9.934;2023-07-09T02:13:31;19.00;1.00
15450;DHT22;7826;49.784;9.934;2023-07-09T02:15:58;19.00;1.00
15450;DHT22;7826;49.784;9.934;2023-07-09T02:18:25;18.90;1.00
15450;DHT22;7826;49.784;9.934;2023-07-09T02:20:51;18.90;1.00
15450;DHT22;7826;49.784;9.934;2023-07-09T02:23:18;18.90;1.00
15450;DHT22;7826;49.784;9.934;2023-07-09T02:25:44;18.90;1.00
15450;DHT22;7826;49.784;9.934;2023-07-09T02:28:11;18.90;1.00
15450;DHT22;7826;49.784;9.934;2023-07-09T02:30:37;18.90;1.00
15450;DHT22;7826;49.784;9.934;2023-07-09T02:33:04;18.80;99.90
15450;DHT22;7826;49.784;9.934;2023-07-09T02:35:30;18.80;1.00
15450;DHT22;7826;49.784;9.934;2023-07-09T02:37:57;18.80;1.00
15450;DHT22;7826;49.784;9.934;2023-07-09T02:40:23;18.90;1.00
15450;DHT22;7826;49.784;9.934;2023-07-09T02:42:50;18.80;43.40
15450;DHT22;7826;49.784;9.934;2023-07-09T02:45:16;18.80;49.60
15450;DHT22;7826;49.784;9.934;2023-07-09T02:47:43;18.70;30.80
15450;DHT22;7826;49.784;9.934;2023-07-09T02:50:09;18.70;99.90
15450;DHT22;7826;49.784;9.934;2023-07-09T02:52:36;18.80;99.90
15450;DHT22;7826;49.784;9.934;2023-07-09T02:55:03;18.70;99.90
15450;DHT22;7826;49.784;9.934;2023-07-09T02:57:29;18.70;99.90
15450;DHT22;7826;49.784;9.934;2023-07-09T02:59:55;18.70;99.90
15450;DHT22;7826;49.784;9.934;2023-07-09T03:02:22;18.60;1.00
15450;DHT22;7826;49.784;9.934;2023-07-09T03:04:48;18.60;1.00
15450;DHT22;7826;49.784;9.934;2023-07-09T03:07:15;18.60;1.00
15450;DHT22;7826;49.784;9.934;2023-07-09T03:09:41;18.60;1.00
15450;DHT22;7826;49.784;9.934;2023-07-09T03:12:08;18.50;99.90
15450;DHT22;7826;49.784;9.934;2023-07-09T03:14:35;18.50;1.00
15450;DHT22;7826;49.784;9.934;2023-07-09T03:17:02;18.50;1.00
15450;DHT22;7826;49.784;9.934;2023-07-09T03:19:28;18.50;1.00
15450;DHT22;7826;49.784;9.934;2023-07-09T03:21:55;18.50;1.00
15450;DHT22;7826;49.784;9.934;2023-07-09T03:24:21;18.50;1.00
15450;DHT22;7826;49.784;9.934;2023-07-09T03:26:48;18.50;1.00
15450;DHT22;7826;49.784;9.934;2023-07-09T03:29:15;18.50;1.00
15450;DHT22;7826;49.784;9.934;2023-07-09T03:31:41;18.50;1.00
15450;DHT22;7826;49.784;9.934;2023-07-09T03:34:08;18.50;1.00
15450;DHT22;7826;49.784;9.934;2023-07-09T03:36:34;18.60;1.00
15450;DHT22;7826;49.784;9.934;2023-07-09T03:39:04;18.70;1.00
15450;DHT22;7826;49.784;9.934;2023-07-09T03:41:30;18.70;1.00
15450;DHT22;7826;49.784;9.934;2023-07-09T03:43:57;18.70;89.70
15450;DHT22;7826;49.784;9.934;2023-07-09T03:46:23;18.70;1.00
15450;DHT22;7826;49.784;9.934;2023-07-09T03:48:50;18.70;1.00
15450;DHT22;7826;49.784;9.934;2023-07-09T03:51:16;18.60;99.90
15450;DHT22;7826;49.784;9.934;2023-07-09T03:53:43;18.70;99.90
15450;DHT22;7826;49.784;9.934;2023-07-09T03:56:10;18.70;1.00
15450;DHT22;7826;49.784;9.934;2023-07-09T03:58:37;18.60;15.00
15450;DHT22;7826;49.784;9.934;2023-07-09T04:01:04;18.70;1.00
15450;DHT22;7826;49.784;9.934;2023-07-09T04:03:31;18.70;99.90
15450;DHT22;7826;49.784;9.934;2023-07-09T04:05:57;18.70;1.00
15450;DHT22;7826;49.784;9.934;2023-07-09T04:08:24;18.70;1.00
15450;DHT22;7826;49.784;9.934;2023-07-09T04:10:58;18.70;99.90
15450;DHT22;7826;49.784;9.934;2023-07-09T04:13:25;18.70;1.00
15450;DHT22;7826;49.784;9.934;2023-07-09T04:15:54;18.80;1.00
15450;DHT22;7826;49.784;9.934;2023-07-09T04:18:20;18.70;99.90
15450;DHT22;7826;49.784;9.934;2023-07-09T04:20:50;18.70;99.90
15450;DHT22;7826;49.784;9.934;2023-07-09T04:23:18;18.60;1.00
15450;DHT22;7826;49.784;9.934;2023-07-09T04:25:45;18.60;1.00
15450;DHT22;7826;49.784;9.934;2023-07-09T04:28:11;18.60;99.90
15450;DHT22;7826;49.784;9.934;2023-07-09T04:30:38;18.70;1.00
15450;DHT22;7826;49.784;9.934;2023-07-09T04:33:05;18.80;1.00
15450;DHT22;7826;49.784;9.934;2023-07-09T04:35:31;18.80;1.00
15450;DHT22;7826;49.784;9.934;2023-07-09T04:37:58;18.70;1.00
15450;DHT22;7826;49.784;9.934;2023-07-09T04:40:24;18.80;1.00
15450;DHT22;7826;49.784;9.934;2023-07-09T04:42:51;18.70;1.00
15450;DHT22;7826;49.784;9.934;2023-07-09T04:45:17;18.70;99.90
15450;DHT22;7826;49.784;9.934;2023-07-09T04:47:44;18.70;99.90
15450;DHT22;7826;49.784;9.934;2023-07-09T04:50:11;18.80;99.90
15450;DHT22;7826;49.784;9.934;2023-07-09T04:52:37;18.90;1.00
15450;DHT22;7826;49.784;9.934;2023-07-09T04:55:04;19.00;99.90
15450;DHT22;7826;49.784;9.934;2023-07-09T04:57:31;19.00;1.00
15450;DHT22;7826;49.784;9.934;2023-07-09T04:59:57;19.00;99.90
15450;DHT22;7826;49.784;9.934;2023-07-09T05:02:24;18.90;1.00
15450;DHT22;7826;49.784;9.934;2023-07-09T05:04:51;19.00;1.00
15450;DHT22;7826;49.784;9.934;2023-07-09T05:07:18;19.10;1.00
15450;DHT22;7826;49.784;9.934;2023-07-09T05:09:44;19.20;1.00
15450;DHT22;7826;49.784;9.934;2023-07-09T05:12:11;19.20;1.00
15450;DHT22;7826;49.784;9.934;2023-07-09T05:14:37;19.30;99.90
15450;DHT22;7826;49.784;9.934;2023-07-09T05:17:04;19.40;99.90
15450;DHT22;7826;49.784;9.934;2023-07-09T05:19:31;19.50;99.90
15450;DHT22;7826;49.784;9.934;2023-07-09T05:21:58;19.60;99.90
15450;DHT22;7826;49.784;9.934;2023-07-09T05:24:25;19.70;99.90
15450;DHT22;7826;49.784;9.934;2023-07-09T05:26:51;19.70;1.00
15450;DHT22;7826;49.784;9.934;2023-07-09T05:29:17;19.80;99.90
15450;DHT22;7826;49.784;9.934;2023-07-09T05:31:44;19.90;1.00
15450;DHT22;7826;49.784;9.934;2023-07-09T05:34:10;20.00;1.00
15450;DHT22;7826;49.784;9.934;2023-07-09T05:36:37;20.00;99.90
15450;DHT22;7826;49.784;9.934;2023-07-09T05:39:03;20.10;5.90
15450;DHT22;7826;49.784;9.934;2023-07-09T05:41:30;20.20;99.90
15450;DHT22;7826;49.784;9.934;2023-07-09T05:43:56;20.30;99.90
15450;DHT22;7826;49.784;9.934;2023-07-09T05:46:23;20.40;1.00
15450;DHT22;7826;49.784;9.934;2023-07-09T05:48:50;20.50;1.00
15450;DHT22;7826;49.784;9.934;2023-07-09T05:51:16;20.60;1.00
15450;DHT22;7826;49.784;9.934;2023-07-09T05:53:43;20.80;99.90
15450;DHT22;7826;49.784;9.934;2023-07-09T05:56:09;20.90;99.90
15450;DHT22;7826;49.784;9.934;2023-07-09T05:58:37;20.90;99.90
15450;DHT22;7826;49.784;9.934;2023-07-09T06:01:03;21.00;99.90
15450;DHT22;7826;49.784;9.934;2023-07-09T06:03:30;21.10;99.90
15450;DHT22;7826;49.784;9.934;2023-07-09T06:05:57;21.20;99.90
15450;DHT22;7826;49.784;9.934;2023-07-09T06:08:26;21.30;99.90
15450;DHT22;7826;49.784;9.934;2023-07-09T06:10:57;21.40;99.90
15450;DHT22;7826;49.784;9.934;2023-07-09T06:13:25;21.50;99.90
15450;DHT22;7826;49.784;9.934;2023-07-09T06:15:52;21.70;83.30
15450;DHT22;7826;49.784;9.934;2023-07-09T06:18:20;21.80;13.10
15450;DHT22;7826;49.784;9.934;2023-07-09T06:20:52;21.80;8.20
15450;DHT22;7826;49.784;9.934;2023-07-09T06:23:19;22.00;1.00
15450;DHT22;7826;49.784;9.934;2023-07-09T06:25:46;22.20;1.00
15450;DHT22;7826;49.784;9.934;2023-07-09T06:28:19;22.40;1.00
15450;DHT22;7826;49.784;9.934;2023-07-09T06:30:46;22.60;1.00
15450;DHT22;7826;49.784;9.934;2023-07-09T06:33:14;22.80;1.00
15450;DHT22;7826;49.784;9.934;2023-07-09T06:35:52;22.80;1.00
15450;DHT22;7826;49.784;9.934;2023-07-09T06:38:18;23.00;1.00
15450;DHT22;7826;49.784;9.934;2023-07-09T06:40:45;23.10;1.00
15450;DHT22;7826;49.784;9.934;2023-07-09T06:43:12;23.30;1.00
15450;DHT22;7826;49.784;9.934;2023-07-09T06:45:47;23.40;1.00
15450;DHT22;7826;49.784;9.934;2023-07-09T06:48:14;23.60;1.00
15450;DHT22;7826;49.784;9.934;2023-07-09T06:50:40;23.90;1.00
15450;DHT22;7826;49.784;9.934;2023-07-09T06:53:07;24.00;1.00
15450;DHT22;7826;49.784;9.934;2023-07-09T06:55:33;24.00;1.00
15450;DHT22;7826;49.784;9.934;2023-07-09T06:58:00;24.20;1.00
15450;DHT22;7826;49.784;9.934;2023-07-09T07:00:26;24.50;99.90
15450;DHT22;7826;49.784;9.934;2023-07-09T07:02:53;24.60;99.90
15450;DHT22;7826;49.784;9.934;2023-07-09T07:05:19;24.90;99.90
15450;DHT22;7826;49.784;9.934;2023-07-09T07:07:46;25.20;99.90
15450;DHT22;7826;49.784;9.934;2023-07-09T07:10:12;25.30;99.90
15450;DHT22;7826;49.784;9.934;2023-07-09T07:12:46;25.50;99.90
15450;DHT22;7826;49.784;9.934;2023-07-09T07:15:15;25.60;99.90
15450;DHT22;7826;49.784;9.934;2023-07-09T07:17:43;25.70;99.90
15450;DHT22;7826;49.784;9.934;2023-07-09T07:20:11;26.10;99.90
15450;DHT22;7826;49.784;9.934;2023-07-09T07:22:38;26.10;99.90
15450;DHT22;7826;49.784;9.934;2023-07-09T07:25:06;26.20;99.90
15450;DHT22;7826;49.784;9.934;2023-07-09T07:27:37;26.50;99.90
15450;DHT22;7826;49.784;9.934;2023-07-09T07:30:05;26.70;99.90
15450;DHT22;7826;49.784;9.934;2023-07-09T07:32:37;26.70;70.00
15450;DHT22;7826;49.784;9.934;2023-07-09T07:35:04;27.10;67.00
15450;DHT22;7826;49.784;9.934;2023-07-09T07:37:30;26.90;14.10
15450;DHT22;7826;49.784;9.934;2023-07-09T07:39:57;27.00;2.60
15450;DHT22;7826;49.784;9.934;2023-07-09T07:42:23;27.00;1.00
15450;DHT22;7826;49.784;9.934;2023-07-09T07:44:50;27.30;1.00
15450;DHT22;7826;49.784;9.934;2023-07-09T07:47:16;27.70;1.00
15450;DHT22;7826;49.784;9.934;2023-07-09T07:49:43;27.80;1.00
15450;DHT22;7826;49.784;9.934;2023-07-09T07:52:09;27.60;1.00
15450;DHT22;7826;49.784;9.934;2023-07-09T07:54:36;27.50;1.00
15450;DHT22;7826;49.784;9.934;2023-07-09T07:57:03;27.90;1.00
15450;DHT22;7826;49.784;9.934;2023-07-09T07:59:30;28.20;1.00
15450;DHT22;7826;49.784;9.934;2023-07-09T08:01:59;28.40;1.00
15450;DHT22;7826;49.784;9.934;2023-07-09T08:04:25;28.10;1.00
15450;DHT22;7826;49.784;9.934;2023-07-09T08:06:52;28.40;1.00
15450;DHT22;7826;49.784;9.934;2023-07-09T08:09:18;28.30;1.00
15450;DHT22;7826;49.784;9.934;2023-07-09T08:11:45;28.40;1.00
15450;DHT22;7826;49.784;9.934;2023-07-09T08:14:11;28.60;1.00
15450;DHT22;7826;49.784;9.934;2023-07-09T08:16:39;28.70;1.00
15450;DHT22;7826;49.784;9.934;2023-07-09T08:19:05;28.80;1.00
15450;DHT22;7826;49.784;9.934;2023-07-09T08:21:32;29.30;1.00
15450;DHT22;7826;49.784;9.934;2023-07-09T08:23:58;29.40;1.00
15450;DHT22;7826;49.784;9.934;2023-07-09T08:26:25;29.60;1.00
15450;DHT22;7826;49.784;9.934;2023-07-09T08:28:53;29.40;1.00
15450;DHT22;7826;49.784;9.934;2023-07-09T08:31:20;29.70;1.00
15450;DHT22;7826;49.784;9.934;2023-07-09T08:33:47;29.60;1.00
15450;DHT22;7826;49.784;9.934;2023-07-09T08:36:13;29.60;1.00
15450;DHT22;7826;49.784;9.934;2023-07-09T08:38:40;29.70;1.00
15450;DHT22;7826;49.784;9.934;2023-07-09T08:41:15;29.90;1.00
15450;DHT22;7826;49.784;9.934;2023-07-09T08:49:19;30.20;1.00
15450;DHT22;7826;49.784;9.934;2023-07-09T08:51:48;30.40;1.00
15450;DHT22;7826;49.784;9.934;2023-07-09T08:54:35;30.30;1.00
15450;DHT22;7826;49.784;9.934;2023-07-09T08:57:21;30.40;1.00
15450;DHT22;7826;49.784;9.934;2023-07-09T08:59:54;30.30;1.00
15450;DHT22;7826;49.784;9.934;2023-07-09T09:02:32;30.60;1.00
15450;DHT22;7826;49.784;9.934;2023-07-09T09:05:03;30.30;1.00
15450;DHT22;7826;49.784;9.934;2023-07-09T09:07:42;30.40;1.00
15450;DHT22;7826;49.784;9.934;2023-07-09T09:10:33;30.40;1.00
15450;DHT22;7826;49.784;9.934;2023-07-09T09:13:10;30.70;1.00
15450;DHT22;7826;49.784;9.934;2023-07-09T09:15:43;31.20;1.00
15450;DHT22;7826;49.784;9.934;2023-07-09T09:18:26;31.60;1.00
15450;DHT22;7826;49.784;9.934;2023-07-09T09:21:16;31.60;1.00
15450;DHT22;7826;49.784;9.934;2023-07-09T09:23:48;31.50;1.00
15450;DHT22;7826;49.784;9.934;2023-07-09T09:26:21;31.40;1.00
15450;DHT22;7826;49.784;9.934;2023-07-09T09:28:49;30.80;1.00
15450;DHT22;7826;49.784;9.934;2023-07-09T09:31:17;31.20;1.00
15450;DHT22;7826;49.784;9.934;2023-07-09T09:33:46;31.50;1.00
15450;DHT22;7826;49.784;9.934;2023-07-09T09:36:22;31.70;1.00
15450;DHT22;7826;49.784;9.934;2023-07-09T09:38:49;31.90;1.00
15450;DHT22;7826;49.784;9.934;2023-07-09T09:41:18;31.70;1.00
15450;DHT22;7826;49.784;9.934;2023-07-09T09:43:46;32.10;1.00
15450;DHT22;7826;49.784;9.934;2023-07-09T09:46:18;32.00;1.00
15450;DHT22;7826;49.784;9.934;2023-07-09T09:48:48;32.00;1.00
15450;DHT22;7826;49.784;9.934;2023-07-09T09:51:16;32.40;1.00
15450;DHT22;7826;49.784;9.934;2023-07-09T09:53:49;32.20;1.00
15450;DHT22;7826;49.784;9.934;2023-07-09T09:56:27;32.70;1.00
15450;DHT22;7826;49.784;9.934;2023-07-09T09:58:55;32.60;1.00
15450;DHT22;7826;49.784;9.934;2023-07-09T10:01:27;32.70;1.00
15450;DHT22;7826;49.784;9.934;2023-07-09T10:03:58;33.20;1.00
15450;DHT22;7826;49.784;9.934;2023-07-09T10:11:36;32.10;1.00
15450;DHT22;7826;49.784;9.934;2023-07-09T10:16:49;33.00;1.00
15450;DHT22;7826;49.784;9.934;2023-07-09T10:19:29;33.20;1.00
15450;DHT22;7826;49.784;9.934;2023-07-09T10:24:45;33.50;1.00
15450;DHT22;7826;49.784;9.934;2023-07-09T10:27:24;33.60;1.00
15450;DHT22;7826;49.784;9.934;2023-07-09T10:38:44;33.70;1.00
15450;DHT22;7826;49.784;9.934;2023-07-09T10:41:15;34.10;1.00
15450;DHT22;7826;49.784;9.934;2023-07-09T10:43:52;34.60;1.00
15450;DHT22;7826;49.784;9.934;2023-07-09T10:46:24;34.70;1.00
15450;DHT22;7826;49.784;9.934;2023-07-09T10:48:53;33.50;1.00
15450;DHT22;7826;49.784;9.934;2023-07-09T10:51:37;33.50;1.00
15450;DHT22;7826;49.784;9.934;2023-07-09T10:56:56;33.20;1.00
15450;DHT22;7826;49.784;9.934;2023-07-09T10:59:29;33.60;1.00
15450;DHT22;7826;49.784;9.934;2023-07-09T11:02:06;33.90;1.00
15450;DHT22;7826;49.784;9.934;2023-07-09T11:05:15;34.20;1.00
15450;DHT22;7826;49.784;9.934;2023-07-09T11:07:51;34.10;1.00
15450;DHT22;7826;49.784;9.934;2023-07-09T11:13:00;34.60;1.00
15450;DHT22;7826;49.784;9.934;2023-07-09T11:15:36;34.40;1.00
15450;DHT22;7826;49.784;9.934;2023-07-09T11:18:06;34.20;1.00
15450;DHT22;7826;49.784;9.934;2023-07-09T11:20:35;34.40;1.00
15450;DHT22;7826;49.784;9.934;2023-07-09T11:23:19;34.50;1.00
15450;DHT22;7826;49.784;9.934;2023-07-09T11:25:48;34.90;1.00
15450;DHT22;7826;49.784;9.934;2023-07-09T11:28:15;34.80;1.00
15450;DHT22;7826;49.784;9.934;2023-07-09T11:30:51;35.00;1.00
15450;DHT22;7826;49.784;9.934;2023-07-09T11:33:25;35.10;1.00
15450;DHT22;7826;49.784;9.934;2023-07-09T11:35:55;35.00;1.00
15450;DHT22;7826;49.784;9.934;2023-07-09T11:38:43;35.10;1.00
15450;DHT22;7826;49.784;9.934;2023-07-09T11:41:38;35.00;1.00
15450;DHT22;7826;49.784;9.934;2023-07-09T11:44:14;34.90;1.00
15450;DHT22;7826;49.784;9.934;2023-07-09T11:49:19;34.20;1.00
15450;DHT22;7826;49.784;9.934;2023-07-09T11:52:00;33.50;1.00
15450;DHT22;7826;49.784;9.934;2023-07-09T11:54:28;33.50;1.00
15450;DHT22;7826;49.784;9.934;2023-07-09T11:57:00;33.70;1.00
15450;DHT22;7826;49.784;9.934;2023-07-09T11:59:29;34.10;1.00
15450;DHT22;7826;49.784;9.934;2023-07-09T12:01:56;33.70;1.00
15450;DHT22;7826;49.784;9.934;2023-07-09T12:04:32;33.80;1.00
15450;DHT22;7826;49.784;9.934;2023-07-09T12:07:01;33.50;1.00
15450;DHT22;7826;49.784;9.934;2023-07-09T12:09:38;33.80;1.00
15450;DHT22;7826;49.784;9.934;2023-07-09T12:12:23;34.00;1.00
15450;DHT22;7826;49.784;9.934;2023-07-09T12:14:50;33.80;1.00
15450;DHT22;7826;49.784;9.934;2023-07-09T12:17:17;33.80;1.00
15450;DHT22;7826;49.784;9.934;2023-07-09T12:19:44;33.60;1.00
15450;DHT22;7826;49.784;9.934;2023-07-09T12:22:19;33.70;1.00
15450;DHT22;7826;49.784;9.934;2023-07-09T12:24:48;34.30;1.00
15450;DHT22;7826;49.784;9.934;2023-07-09T12:27:24;34.70;1.00
15450;DHT22;7826;49.784;9.934;2023-07-09T12:29:53;34.80;1.00
15450;DHT22;7826;49.784;9.934;2023-07-09T12:32:20;34.80;1.00
15450;DHT22;7826;49.784;9.934;2023-07-09T12:34:51;34.50;1.00
15450;DHT22;7826;49.784;9.934;2023-07-09T12:37:19;34.30;1.00
15450;DHT22;7826;49.784;9.934;2023-07-09T12:39:47;34.40;1.00
15450;DHT22;7826;49.784;9.934;2023-07-09T12:42:19;34.50;1.00
15450;DHT22;7826;49.784;9.934;2023-07-09T12:44:47;34.40;1.00
15450;DHT22;7826;49.784;9.934;2023-07-09T12:47:15;34.10;1.00
15450;DHT22;7826;49.784;9.934;2023-07-09T12:49:44;34.20;1.00
15450;DHT22;7826;49.784;9.934;2023-07-09T12:52:19;34.10;1.00
15450;DHT22;7826;49.784;9.934;2023-07-09T12:54:56;34.30;1.00
15450;DHT22;7826;49.784;9.934;2023-07-09T12:57:24;34.20;1.00
15450;DHT22;7826;49.784;9.934;2023-07-09T12:59:51;34.40;1.00
15450;DHT22;7826;49.784;9.934;2023-07-09T13:02:23;34.60;1.00
15450;DHT22;7826;49.784;9.934;2023-07-09T13:05:02;34.60;1.00
15450;DHT22;7826;49.784;9.934;2023-07-09T13:07:39;34.80;1.00
15450;DHT22;7826;49.784;9.934;2023-07-09T13:12:41;34.60;1.00
15450;DHT22;7826;49.784;9.934;2023-07-09T13:15:31;34.90;1.00
15450;DHT22;7826;49.784;9.934;2023-07-09T13:18:06;35.00;1.00
15450;DHT22;7826;49.784;9.934;2023-07-09T13:20:36;35.10;1.00
15450;DHT22;7826;49.784;9.934;2023-07-09T13:23:12;35.30;1.00
15450;DHT22;7826;49.784;9.934;2023-07-09T13:25:39;34.80;1.00
15450;DHT22;7826;49.784;9.934;2023-07-09T13:30:43;35.00;1.00
15450;DHT22;7826;49.784;9.934;2023-07-09T13:33:10;35.20;1.00
15450;DHT22;7826;49.784;9.934;2023-07-09T13:35:37;34.90;1.00
15450;DHT22;7826;49.784;9.934;2023-07-09T13:38:15;34.90;1.00
15450;DHT22;7826;49.784;9.934;2023-07-09T13:40:43;35.10;1.00
15450;DHT22;7826;49.784;9.934;2023-07-09T13:43:31;34.90;1.00
15450;DHT22;7826;49.784;9.934;2023-07-09T13:45:59;34.20;1.00
15450;DHT22;7826;49.784;9.934;2023-07-09T13:48:27;34.10;1.00
15450;DHT22;7826;49.784;9.934;2023-07-09T13:50:55;34.20;1.00
15450;DHT22;7826;49.784;9.934;2023-07-09T13:53:31;34.40;1.00
15450;DHT22;7826;49.784;9.934;2023-07-09T13:55:58;34.40;1.00
15450;DHT22;7826;49.784;9.934;2023-07-09T13:58:26;34.50;1.00
15450;DHT22;7826;49.784;9.934;2023-07-09T14:01:08;34.40;1.00
15450;DHT22;7826;49.784;9.934;2023-07-09T14:03:36;34.30;1.00
15450;DHT22;7826;49.784;9.934;2023-07-09T14:06:02;34.40;1.00
15450;DHT22;7826;49.784;9.934;2023-07-09T14:08:29;34.00;1.00
15450;DHT22;7826;49.784;9.934;2023-07-09T14:10:56;34.00;1.00
15450;DHT22;7826;49.784;9.934;2023-07-09T14:13:24;34.30;1.00
15450;DHT22;7826;49.784;9.934;2023-07-09T14:15:51;34.40;1.00
15450;DHT22;7826;49.784;9.934;2023-07-09T14:18:22;34.60;1.00
15450;DHT22;7826;49.784;9.934;2023-07-09T14:20:50;34.70;1.00
15450;DHT22;7826;49.784;9.934;2023-07-09T14:23:17;34.70;1.00
15450;DHT22;7826;49.784;9.934;2023-07-09T14:25:45;34.30;1.00
15450;DHT22;7826;49.784;9.934;2023-07-09T14:28:17;34.20;1.00
15450;DHT22;7826;49.784;9.934;2023-07-09T14:30:45;34.20;1.00
15450;DHT22;7826;49.784;9.934;2023-07-09T14:33:15;34.30;1.00
15450;DHT22;7826;49.784;9.934;2023-07-09T14:35:43;34.60;1.00
15450;DHT22;7826;49.784;9.934;2023-07-09T14:38:19;34.70;1.00
15450;DHT22;7826;49.784;9.934;2023-07-09T14:40:48;34.60;1.00
15450;DHT22;7826;49.784;9.934;2023-07-09T14:43:15;34.50;1.00
15450;DHT22;7826;49.784;9.934;2023-07-09T14:45:42;34.30;1.00
15450;DHT22;7826;49.784;9.934;2023-07-09T14:48:13;34.30;1.00
15450;DHT22;7826;49.784;9.934;2023-07-09T14:50:41;34.30;1.00
15450;DHT22;7826;49.784;9.934;2023-07-09T14:53:20;34.00;1.00
15450;DHT22;7826;49.784;9.934;2023-07-09T14:55:47;34.10;1.00
15450;DHT22;7826;49.784;9.934;2023-07-09T14:58:19;33.80;1.00
15450;DHT22;7826;49.784;9.934;2023-07-09T15:00:46;33.70;1.00
15450;DHT22;7826;49.784;9.934;2023-07-09T15:03:22;33.80;1.00
15450;DHT22;7826;49.784;9.934;2023-07-09T15:05:49;33.90;1.00
15450;DHT22;7826;49.784;9.934;2023-07-09T15:08:19;34.10;1.00
15450;DHT22;7826;49.784;9.934;2023-07-09T15:10:47;33.90;1.00
15450;DHT22;7826;49.784;9.934;2023-07-09T15:13:29;33.60;1.00
15450;DHT22;7826;49.784;9.934;2023-07-09T15:15:56;33.60;1.00
15450;DHT22;7826;49.784;9.934;2023-07-09T15:18:22;33.70;1.00
15450;DHT22;7826;49.784;9.934;2023-07-09T15:20:51;33.30;1.00
15450;DHT22;7826;49.784;9.934;2023-07-09T15:23:18;33.40;1.00
15450;DHT22;7826;49.784;9.934;2023-07-09T15:25:49;33.40;1.00
15450;DHT22;7826;49.784;9.934;2023-07-09T15:28:16;33.40;1.00
15450;DHT22;7826;49.784;9.934;2023-07-09T15:30:44;33.60;1.00
15450;DHT22;7826;49.784;9.934;2023-07-09T15:33:16;33.70;1.00
15450;DHT22;7826;49.784;9.934;2023-07-09T15:35:44;33.50;1.00
15450;DHT22;7826;49.784;9.934;2023-07-09T15:40:47;33.70;1.00
15450;DHT22;7826;49.784;9.934;2023-07-09T15:43:15;33.50;1.00
15450;DHT22;7826;49.784;9.934;2023-07-09T15:45:48;33.50;1.00
15450;DHT22;7826;49.784;9.934;2023-07-09T15:48:22;33.40;1.00
15450;DHT22;7826;49.784;9.934;2023-07-09T15:50:49;33.40;1.00
15450;DHT22;7826;49.784;9.934;2023-07-09T15:53:16;33.40;1.00
15450;DHT22;7826;49.784;9.934;2023-07-09T15:55:42;33.40;1.00
15450;DHT22;7826;49.784;9.934;2023-07-09T15:58:21;33.20;1.00
15450;DHT22;7826;49.784;9.934;2023-07-09T16:00:50;33.20;1.00
15450;DHT22;7826;49.784;9.934;2023-07-09T16:03:17;33.20;1.00
15450;DHT22;7826;49.784;9.934;2023-07-09T16:05:43;33.40;1.00
15450;DHT22;7826;49.784;9.934;2023-07-09T16:08:11;33.40;1.00
15450;DHT22;7826;49.784;9.934;2023-07-09T16:10:37;33.30;1.00
15450;DHT22;7826;49.784;9.934;2023-07-09T16:13:11;32.90;1.00
15450;DHT22;7826;49.784;9.934;2023-07-09T16:15:42;32.90;1.00
15450;DHT22;7826;49.784;9.934;2023-07-09T16:18:10;33.00;1.00
15450;DHT22;7826;49.784;9.934;2023-07-09T16:20:37;33.00;1.00
15450;DHT22;7826;49.784;9.934;2023-07-09T16:23:04;32.90;1.00
15450;DHT22;7826;49.784;9.934;2023-07-09T16:25:35;32.80;1.00
15450;DHT22;7826;49.784;9.934;2023-07-09T16:28:02;32.90;1.00
15450;DHT22;7826;49.784;9.934;2023-07-09T16:30:30;32.90;1.00
15450;DHT22;7826;49.784;9.934;2023-07-09T16:32:58;32.70;1.00
15450;DHT22;7826;49.784;9.934;2023-07-09T16:35:28;32.50;1.00
15450;DHT22;7826;49.784;9.934;2023-07-09T16:37:55;32.50;1.00
15450;DHT22;7826;49.784;9.934;2023-07-09T16:40:22;32.50;1.00
15450;DHT22;7826;49.784;9.934;2023-07-09T16:42:50;32.10;1.00
15450;DHT22;7826;49.784;9.934;2023-07-09T16:45:19;32.10;1.00
15450;DHT22;7826;49.784;9.934;2023-07-09T16:47:46;31.80;1.00
15450;DHT22;7826;49.784;9.934;2023-07-09T16:50:16;31.60;1.00
15450;DHT22;7826;49.784;9.934;2023-07-09T16:52:44;31.50;1.00
15450;DHT22;7826;49.784;9.934;2023-07-09T16:55:25;31.30;1.00